sensor_id;sensor_type;location;lat;lon;timestamp;temperature;humidity
79698;SHT31;69168;42.708;23.286;2024-01-15T00:02:09;-1.65;70.86
79698;SHT31;69168;42.708;23.286;2024-01-15T00:04:41;-1.71;70.65
79698;SHT31;69168;42.708;23.286;2024-01-15T00:07:07;-1.77;70.79
79698;SHT31;69168;42.708;23.286;2024-01-15T00:09:33;-1.95;71.11
79698;SHT31;69168;42.708;23.286;2024-01-15T00:11:59;-1.86;71.32
79698;SHT31;69168;42.708;23.286;2024-01-15T00:14:25;-1.81;70.96
79698;SHT31;69168;42.708;23.286;2024-01-15T00:16:50;-1.92;71.26
79698;SHT31;69168;42.708;23.286;2024-01-15T00:19:18;-1.86;71.18
79698;SHT31;69168;42.708;23.286;2024-01-15T00:21:44;-1.89;71.58
79698;SHT31;69168;42.708;23.286;2024-01-15T00:24:10;-1.96;71.49
79698;SHT31;69168;42.708;23.286;2024-01-15T00:26:36;-1.99;72.15
79698;SHT31;69168;42.708;23.286;2024-01-15T00:29:02;-1.92;72.96
79698;SHT31;69168;42.708;23.286;2024-01-15T00:31:28;-1.86;73.30
79698;SHT31;69168;42.708;23.286;2024-01-15T00:33:55;-1.79;72.35
79698;SHT31;69168;42.708;23.286;2024-01-15T00:36:20;-1.74;72.04
79698;SHT31;69168;42.708;23.286;2024-01-15T00:38:46;-1.77;71.66
79698;SHT31;69168;42.708;23.286;2024-01-15T00:41:13;-1.79;71.41
79698;SHT31;69168;42.708;23.286;2024-01-15T00:43:38;-1.79;71.98
79698;SHT31;69168;42.708;23.286;2024-01-15T00:46:04;-1.75;72.01
79698;SHT31;69168;42.708;23.286;2024-01-15T00:48:30;-1.78;71.92
79698;SHT31;69168;42.708;23.286;2024-01-15T00:50:55;-1.75;71.34
79698;SHT31;69168;42.708;23.286;2024-01-15T00:53:25;-1.75;71.66
79698;SHT31;69168;42.708;23.286;2024-01-15T00:55:50;-1.85;71.81
79698;SHT31;69168;42.708;23.286;2024-01-15T00:58:16;-1.89;71.84
79698;SHT31;69168;42.708;23.286;2024-01-15T01:00:41;-1.77;71.88
79698;SHT31;69168;42.708;23.286;2024-01-15T01:03:08;-1.71;71.58
79698;SHT31;69168;42.708;23.286;2024-01-15T01:05:36;-1.84;71.67
79698;SHT31;69168;42.708;23.286;2024-01-15T01:08:02;-1.79;71.46
79698;SHT31;69168;42.708;23.286;2024-01-15T01:10:27;-1.81;71.38
79698;SHT31;69168;42.708;23.286;2024-01-15T01:12:53;-1.78;71.23
79698;SHT31;69168;42.708;23.286;2024-01-15T01:15:18;-1.70;70.86
79698;SHT31;69168;42.708;23.286;2024-01-15T01:17:45;-1.75;71.28
79698;SHT31;69168;42.708;23.286;2024-01-15T01:20:11;-1.60;70.88
79698;SHT31;69168;42.708;23.286;2024-01-15T01:22:37;-1.71;71.44
79698;SHT31;69168;42.708;23.286;2024-01-15T01:25:02;-1.84;71.27
79698;SHT31;69168;42.708;23.286;2024-01-15T01:27:28;-1.82;71.34
79698;SHT31;69168;42.708;23.286;2024-01-15T01:29:54;-1.89;71.56
79698;SHT31;69168;42.708;23.286;2024-01-15T01:32:19;-1.93;71.71
79698;SHT31;69168;42.708;23.286;2024-01-15T01:34:45;-1.93;71.54
79698;SHT31;69168;42.708;23.286;2024-01-15T01:37:11;-2.01;71.49
79698;SHT31;69168;42.708;23.286;2024-01-15T01:39:41;-1.99;71.35
79698;SHT31;69168;42.708;23.286;2024-01-15T01:42:06;-2.01;71.35
79698;SHT31;69168;42.708;23.286;2024-01-15T01:44:32;-2.02;71.56
79698;SHT31;69168;42.708;23.286;2024-01-15T01:46:59;-1.96;71.58
79698;SHT31;69168;42.708;23.286;2024-01-15T01:49:25;-2.10;71.72
79698;SHT31;69168;42.708;23.286;2024-01-15T01:51:52;-2.01;71.84
79698;SHT31;69168;42.708;23.286;2024-01-15T01:54:19;-2.06;71.74
79698;SHT31;69168;42.708;23.286;2024-01-15T01:56:47;-2.10;72.08
79698;SHT31;69168;42.708;23.286;2024-01-15T01:59:13;-2.07;71.52
79698;SHT31;69168;42.708;23.286;2024-01-15T02:01:39;-2.14;71.58
79698;SHT31;69168;42.708;23.286;2024-01-15T02:04:04;-2.07;71.62
79698;SHT31;69168;42.708;23.286;2024-01-15T02:06:30;-2.12;71.44
79698;SHT31;69168;42.708;23.286;2024-01-15T02:08:56;-2.14;71.47
79698;SHT31;69168;42.708;23.286;2024-01-15T02:11:22;-2.13;71.54
79698;SHT31;69168;42.708;23.286;2024-01-15T02:13:48;-2.09;71.67
79698;SHT31;69168;42.708;23.286;2024-01-15T02:16:13;-2.13;72.01
79698;SHT31;69168;42.708;23.286;2024-01-15T02:18:43;-2.18;71.90
79698;SHT31;69168;42.708;23.286;2024-01-15T02:21:09;-2.16;71.76
79698;SHT31;69168;42.708;23.286;2024-01-15T02:23:35;-2.18;72.28
79698;SHT31;69168;42.708;23.286;2024-01-15T02:26:01;-2.13;72.07
79698;SHT31;69168;42.708;23.286;2024-01-15T02:28:26;-2.16;72.12
79698;SHT31;69168;42.708;23.286;2024-01-15T02:30:52;-2.18;72.04
79698;SHT31;69168;42.708;23.286;2024-01-15T02:33:17;-2.18;72.24
79698;SHT31;69168;42.708;23.286;2024-01-15T02:35:43;-2.12;72.34
79698;SHT31;69168;42.708;23.286;2024-01-15T02:38:08;-2.14;72.66
79698;SHT31;69168;42.708;23.286;2024-01-15T02:40:35;-2.07;72.48
79698;SHT31;69168;42.708;23.286;2024-01-15T02:43:00;-2.12;72.03
79698;SHT31;69168;42.708;23.286;2024-01-15T02:45:27;-2.18;72.08
79698;SHT31;69168;42.708;23.286;2024-01-15T02:47:52;-2.20;72.40
79698;SHT31;69168;42.708;23.286;2024-01-15T02:50:18;-2.22;72.48
79698;SHT31;69168;42.708;23.286;2024-01-15T02:52:43;-2.23;72.60
79698;SHT31;69168;42.708;23.286;2024-01-15T02:55:09;-2.36;72.36
79698;SHT31;69168;42.708;23.286;2024-01-15T02:57:35;-2.53;73.11
79698;SHT31;69168;42.708;23.286;2024-01-15T03:00:01;-2.39;72.66
79698;SHT31;69168;42.708;23.286;2024-01-15T03:02:26;-2.44;72.87
79698;SHT31;69168;42.708;23.286;2024-01-15T03:04:52;-2.65;73.62
79698;SHT31;69168;42.708;23.286;2024-01-15T03:07:18;-2.64;73.49
79698;SHT31;69168;42.708;23.286;2024-01-15T03:09:44;-2.51;72.79
79698;SHT31;69168;42.708;23.286;2024-01-15T03:12:09;-2.44;72.79
79698;SHT31;69168;42.708;23.286;2024-01-15T03:14:36;-2.34;72.58
79698;SHT31;69168;42.708;23.286;2024-01-15T03:17:01;-2.32;72.21
79698;SHT31;69168;42.708;23.286;2024-01-15T03:19:27;-2.37;72.40
79698;SHT31;69168;42.708;23.286;2024-01-15T03:21:53;-2.46;72.52
79698;SHT31;69168;42.708;23.286;2024-01-15T03:24:18;-2.47;72.38
79698;SHT31;69168;42.708;23.286;2024-01-15T03:26:44;-2.47;72.72
79698;SHT31;69168;42.708;23.286;2024-01-15T03:29:09;-2.41;72.67
79698;SHT31;69168;42.708;23.286;2024-01-15T03:31:35;-2.46;72.89
79698;SHT31;69168;42.708;23.286;2024-01-15T03:34:01;-2.54;73.00
79698;SHT31;69168;42.708;23.286;2024-01-15T03:36:26;-2.41;72.36
79698;SHT31;69168;42.708;23.286;2024-01-15T03:38:52;-2.53;72.44
79698;SHT31;69168;42.708;23.286;2024-01-15T03:41:17;-2.51;72.67
79698;SHT31;69168;42.708;23.286;2024-01-15T03:43:43;-2.60;72.77
79698;SHT31;69168;42.708;23.286;2024-01-15T03:46:08;-2.56;73.05
79698;SHT31;69168;42.708;23.286;2024-01-15T03:48:34;-2.58;73.32
79698;SHT31;69168;42.708;23.286;2024-01-15T03:50:59;-2.58;73.57
79698;SHT31;69168;42.708;23.286;2024-01-15T03:53:25;-2.58;73.53
79698;SHT31;69168;42.708;23.286;2024-01-15T03:55:51;-2.47;73.22
79698;SHT31;69168;42.708;23.286;2024-01-15T03:58:17;-2.41;72.63
79698;SHT31;69168;42.708;23.286;2024-01-15T04:00:43;-2.51;72.78
79698;SHT31;69168;42.708;23.286;2024-01-15T04:03:09;-2.40;72.65
79698;SHT31;69168;42.708;23.286;2024-01-15T04:05:35;-2.37;72.69
79698;SHT31;69168;42.708;23.286;2024-01-15T04:08:00;-2.56;72.85
79698;SHT31;69168;42.708;23.286;2024-01-15T04:10:26;-2.71;73.13
79698;SHT31;69168;42.708;23.286;2024-01-15T04:12:52;-2.79;73.40
79698;SHT31;69168;42.708;23.286;2024-01-15T04:15:17;-2.92;73.55
79698;SHT31;69168;42.708;23.286;2024-01-15T04:17:43;-2.85;73.50
79698;SHT31;69168;42.708;23.286;2024-01-15T04:20:09;-2.93;73.78
79698;SHT31;69168;42.708;23.286;2024-01-15T04:22:35;-2.92;73.78
79698;SHT31;69168;42.708;23.286;2024-01-15T04:25:01;-2.85;73.24
79698;SHT31;69168;42.708;23.286;2024-01-15T04:27:26;-2.79;73.32
79698;SHT31;69168;42.708;23.286;2024-01-15T04:29:52;-2.71;73.18
79698;SHT31;69168;42.708;23.286;2024-01-15T04:32:18;-2.64;72.64
79698;SHT31;69168;42.708;23.286;2024-01-15T04:34:43;-2.53;72.10
79698;SHT31;69168;42.708;23.286;2024-01-15T04:37:11;-2.60;72.06
79698;SHT31;69168;42.708;23.286;2024-01-15T04:39:38;-2.60;72.38
79698;SHT31;69168;42.708;23.286;2024-01-15T04:42:04;-2.61;72.25
79698;SHT31;69168;42.708;23.286;2024-01-15T04:44:29;-2.68;72.68
79698;SHT31;69168;42.708;23.286;2024-01-15T04:46:55;-2.77;72.79
79698;SHT31;69168;42.708;23.286;2024-01-15T04:49:20;-2.99;73.30
79698;SHT31;69168;42.708;23.286;2024-01-15T04:51:46;-2.97;73.70
79698;SHT31;69168;42.708;23.286;2024-01-15T04:54:11;-2.81;73.19
79698;SHT31;69168;42.708;23.286;2024-01-15T04:56:37;-2.71;73.06
79698;SHT31;69168;42.708;23.286;2024-01-15T04:59:03;-2.61;72.88
79698;SHT31;69168;42.708;23.286;2024-01-15T05:01:32;-2.79;72.99
79698;SHT31;69168;42.708;23.286;2024-01-15T05:03:58;-2.78;73.53
79698;SHT31;69168;42.708;23.286;2024-01-15T05:06:24;-2.77;73.53
79698;SHT31;69168;42.708;23.286;2024-01-15T05:08:49;-2.68;72.96
79698;SHT31;69168;42.708;23.286;2024-01-15T05:11:15;-2.61;72.87
79698;SHT31;69168;42.708;23.286;2024-01-15T05:13:40;-2.60;72.55
79698;SHT31;69168;42.708;23.286;2024-01-15T05:16:06;-2.72;72.75
79698;SHT31;69168;42.708;23.286;2024-01-15T05:18:31;-2.84;73.51
79698;SHT31;69168;42.708;23.286;2024-01-15T05:20:57;-2.84;73.13
79698;SHT31;69168;42.708;23.286;2024-01-15T05:23:22;-2.93;73.27
79698;SHT31;69168;42.708;23.286;2024-01-15T05:25:48;-2.82;72.92
79698;SHT31;69168;42.708;23.286;2024-01-15T05:28:14;-3.09;73.52
79698;SHT31;69168;42.708;23.286;2024-01-15T05:30:39;-2.95;73.59
79698;SHT31;69168;42.708;23.286;2024-01-15T05:33:05;-2.93;73.04
79698;SHT31;69168;42.708;23.286;2024-01-15T05:35:33;-2.97;73.12
79698;SHT31;69168;42.708;23.286;2024-01-15T05:37:59;-2.86;72.84
79698;SHT31;69168;42.708;23.286;2024-01-15T05:40:24;-3.00;73.14
79698;SHT31;69168;42.708;23.286;2024-01-15T05:42:50;-3.14;73.77
79698;SHT31;69168;42.708;23.286;2024-01-15T05:45:16;-3.09;73.88
79698;SHT31;69168;42.708;23.286;2024-01-15T05:47:41;-2.92;73.31
79698;SHT31;69168;42.708;23.286;2024-01-15T05:50:08;-2.84;72.99
79698;SHT31;69168;42.708;23.286;2024-01-15T05:52:33;-2.61;72.60
79698;SHT31;69168;42.708;23.286;2024-01-15T05:54:59;-2.64;72.68
79698;SHT31;69168;42.708;23.286;2024-01-15T05:57:24;-2.60;72.83
79698;SHT31;69168;42.708;23.286;2024-01-15T05:59:50;-2.68;73.06
79698;SHT31;69168;42.708;23.286;2024-01-15T06:02:15;-3.16;74.08
79698;SHT31;69168;42.708;23.286;2024-01-15T06:04:41;-3.20;74.91
79698;SHT31;69168;42.708;23.286;2024-01-15T06:07:06;-3.29;75.30
79698;SHT31;69168;42.708;23.286;2024-01-15T06:09:32;-3.20;75.32
79698;SHT31;69168;42.708;23.286;2024-01-15T06:11:58;-3.16;75.26
79698;SHT31;69168;42.708;23.286;2024-01-15T06:14:23;-3.02;75.03
79698;SHT31;69168;42.708;23.286;2024-01-15T06:16:49;-2.81;74.13
79698;SHT31;69168;42.708;23.286;2024-01-15T06:19:15;-2.82;74.31
79698;SHT31;69168;42.708;23.286;2024-01-15T06:21:43;-2.64;73.84
79698;SHT31;69168;42.708;23.286;2024-01-15T06:24:12;-2.60;73.54
79698;SHT31;69168;42.708;23.286;2024-01-15T06:26:40;-2.61;73.87
79698;SHT31;69168;42.708;23.286;2024-01-15T06:29:06;-2.56;73.83
79698;SHT31;69168;42.708;23.286;2024-01-15T06:31:31;-2.51;73.89
79698;SHT31;69168;42.708;23.286;2024-01-15T06:33:58;-2.48;73.71
79698;SHT31;69168;42.708;23.286;2024-01-15T06:36:23;-2.33;73.55
79698;SHT31;69168;42.708;23.286;2024-01-15T06:38:49;-2.25;73.30
79698;SHT31;69168;42.708;23.286;2024-01-15T06:41:14;-2.43;73.52
79698;SHT31;69168;42.708;23.286;2024-01-15T06:43:40;-2.40;73.72
79698;SHT31;69168;42.708;23.286;2024-01-15T06:46:05;-2.22;73.46
79698;SHT31;69168;42.708;23.286;2024-01-15T06:48:31;-2.26;73.45
79698;SHT31;69168;42.708;23.286;2024-01-15T06:50:56;-2.22;73.65
79698;SHT31;69168;42.708;23.286;2024-01-15T06:53:22;-2.02;73.25
79698;SHT31;69168;42.708;23.286;2024-01-15T06:55:48;-1.89;72.46
79698;SHT31;69168;42.708;23.286;2024-01-15T06:58:14;-1.68;72.46
79698;SHT31;69168;42.708;23.286;2024-01-15T07:00:40;-1.79;72.28
79698;SHT31;69168;42.708;23.286;2024-01-15T07:03:06;-1.54;70.83
79698;SHT31;69168;42.708;23.286;2024-01-15T07:05:31;-1.82;72.03
79698;SHT31;69168;42.708;23.286;2024-01-15T07:07:57;-1.82;72.32
79698;SHT31;69168;42.708;23.286;2024-01-15T07:10:23;-1.77;72.40
79698;SHT31;69168;42.708;23.286;2024-01-15T07:12:48;-1.75;72.21
79698;SHT31;69168;42.708;23.286;2024-01-15T07:15:14;-1.68;72.34
79698;SHT31;69168;42.708;23.286;2024-01-15T07:17:41;-1.63;72.08
79698;SHT31;69168;42.708;23.286;2024-01-15T07:20:08;-1.57;71.98
79698;SHT31;69168;42.708;23.286;2024-01-15T07:22:35;-1.56;71.68
79698;SHT31;69168;42.708;23.286;2024-01-15T07:25:00;-1.57;71.67
79698;SHT31;69168;42.708;23.286;2024-01-15T07:27:26;-1.46;71.86
79698;SHT31;69168;42.708;23.286;2024-01-15T07:29:51;-1.40;71.19
79698;SHT31;69168;42.708;23.286;2024-01-15T07:32:17;-1.44;71.72
79698;SHT31;69168;42.708;23.286;2024-01-15T07:34:43;-1.35;72.47
79698;SHT31;69168;42.708;23.286;2024-01-15T07:37:09;-1.33;72.14
79698;SHT31;69168;42.708;23.286;2024-01-15T07:39:34;-1.35;72.64
79698;SHT31;69168;42.708;23.286;2024-01-15T07:42:00;-1.26;72.76
79698;SHT31;69168;42.708;23.286;2024-01-15T07:44:26;-1.12;71.73
79698;SHT31;69168;42.708;23.286;2024-01-15T07:46:51;-1.10;71.34
79698;SHT31;69168;42.708;23.286;2024-01-15T07:49:17;-1.01;71.28
79698;SHT31;69168;42.708;23.286;2024-01-15T07:51:43;-0.99;71.27
79698;SHT31;69168;42.708;23.286;2024-01-15T07:54:11;-0.89;71.73
79698;SHT31;69168;42.708;23.286;2024-01-15T07:57:05;-0.87;71.93
79698;SHT31;69168;42.708;23.286;2024-01-15T07:59:30;-0.70;71.33
79698;SHT31;69168;42.708;23.286;2024-01-15T08:01:57;-0.54;70.46
79698;SHT31;69168;42.708;23.286;2024-01-15T08:04:23;-0.56;70.78
79698;SHT31;69168;42.708;23.286;2024-01-15T08:06:49;-0.58;71.23
79698;SHT31;69168;42.708;23.286;2024-01-15T08:09:14;-0.71;71.23
79698;SHT31;69168;42.708;23.286;2024-01-15T08:11:40;-0.71;71.55
79698;SHT31;69168;42.708;23.286;2024-01-15T08:14:07;-0.68;72.26
79698;SHT31;69168;42.708;23.286;2024-01-15T08:16:33;-0.56;72.23
79698;SHT31;69168;42.708;23.286;2024-01-15T08:18:59;-0.56;72.83
79698;SHT31;69168;42.708;23.286;2024-01-15T08:21:24;-0.50;71.93
79698;SHT31;69168;42.708;23.286;2024-01-15T08:23:53;-0.30;70.84
79698;SHT31;69168;42.708;23.286;2024-01-15T08:26:18;-0.36;70.72
79698;SHT31;69168;42.708;23.286;2024-01-15T08:28:44;-0.25;70.68
79698;SHT31;69168;42.708;23.286;2024-01-15T08:31:09;-0.22;70.63
79698;SHT31;69168;42.708;23.286;2024-01-15T08:33:35;-0.22;70.96
79698;SHT31;69168;42.708;23.286;2024-01-15T08:36:01;-0.16;72.34
79698;SHT31;69168;42.708;23.286;2024-01-15T08:38:26;-0.05;70.73
79698;SHT31;69168;42.708;23.286;2024-01-15T08:40:52;0.01;70.38
79698;SHT31;69168;42.708;23.286;2024-01-15T08:43:18;0.02;69.86
79698;SHT31;69168;42.708;23.286;2024-01-15T08:45:44;0.09;69.98
79698;SHT31;69168;42.708;23.286;2024-01-15T08:48:10;0.15;69.94
79698;SHT31;69168;42.708;23.286;2024-01-15T08:50:36;0.19;71.11
79698;SHT31;69168;42.708;23.286;2024-01-15T08:53:01;0.25;70.96
79698;SHT31;69168;42.708;23.286;2024-01-15T08:55:27;0.40;70.39
79698;SHT31;69168;42.708;23.286;2024-01-15T08:57:52;0.56;69.93
79698;SHT31;69168;42.708;23.286;2024-01-15T09:00:18;0.67;69.54
79698;SHT31;69168;42.708;23.286;2024-01-15T09:02:44;0.80;69.54
79698;SHT31;69168;42.708;23.286;2024-01-15T09:05:10;0.88;68.43
79698;SHT31;69168;42.708;23.286;2024-01-15T09:07:35;0.91;67.70
79698;SHT31;69168;42.708;23.286;2024-01-15T09:10:01;0.94;67.47
79698;SHT31;69168;42.708;23.286;2024-01-15T09:12:27;0.91;67.56
79698;SHT31;69168;42.708;23.286;2024-01-15T09:14:53;0.80;67.57
79698;SHT31;69168;42.708;23.286;2024-01-15T09:17:20;0.77;67.70
79698;SHT31;69168;42.708;23.286;2024-01-15T09:19:47;0.70;67.74
79698;SHT31;69168;42.708;23.286;2024-01-15T09:22:13;0.70;67.94
79698;SHT31;69168;42.708;23.286;2024-01-15T09:24:42;0.63;68.55
79698;SHT31;69168;42.708;23.286;2024-01-15T09:27:07;0.68;68.66
79698;SHT31;69168;42.708;23.286;2024-01-15T09:29:33;0.63;68.95
79698;SHT31;69168;42.708;23.286;2024-01-15T09:31:58;0.75;68.88
79698;SHT31;69168;42.708;23.286;2024-01-15T09:34:24;0.80;68.88
79698;SHT31;69168;42.708;23.286;2024-01-15T09:36:50;0.87;69.07
79698;SHT31;69168;42.708;23.286;2024-01-15T09:39:15;1.05;69.15
79698;SHT31;69168;42.708;23.286;2024-01-15T09:41:43;1.54;68.12
79698;SHT31;69168;42.708;23.286;2024-01-15T09:44:10;1.66;67.54
79698;SHT31;69168;42.708;23.286;2024-01-15T09:46:36;1.78;66.89
79698;SHT31;69168;42.708;23.286;2024-01-15T09:49:02;1.95;66.50
79698;SHT31;69168;42.708;23.286;2024-01-15T09:51:31;2.15;66.09
79698;SHT31;69168;42.708;23.286;2024-01-15T09:53:57;2.39;65.66
79698;SHT31;69168;42.708;23.286;2024-01-15T09:56:24;2.33;64.23
79698;SHT31;69168;42.708;23.286;2024-01-15T09:58:50;2.47;63.63
79698;SHT31;69168;42.708;23.286;2024-01-15T10:01:20;2.61;63.45
79698;SHT31;69168;42.708;23.286;2024-01-15T10:03:49;2.65;63.36
79698;SHT31;69168;42.708;23.286;2024-01-15T10:06:16;2.80;63.24
79698;SHT31;69168;42.708;23.286;2024-01-15T10:08:44;2.99;62.80
79698;SHT31;69168;42.708;23.286;2024-01-15T10:11:12;3.26;62.69
79698;SHT31;69168;42.708;23.286;2024-01-15T10:13:43;3.54;61.13
79698;SHT31;69168;42.708;23.286;2024-01-15T10:16:08;3.75;59.95
79698;SHT31;69168;42.708;23.286;2024-01-15T10:18:34;3.64;60.03
79698;SHT31;69168;42.708;23.286;2024-01-15T10:21:03;3.88;60.37
79698;SHT31;69168;42.708;23.286;2024-01-15T10:23:29;4.09;59.94
79698;SHT31;69168;42.708;23.286;2024-01-15T10:25:56;4.16;58.76
79698;SHT31;69168;42.708;23.286;2024-01-15T10:28:22;4.19;58.84
79698;SHT31;69168;42.708;23.286;2024-01-15T10:30:52;4.36;58.61
79698;SHT31;69168;42.708;23.286;2024-01-15T10:33:22;4.29;58.97
79698;SHT31;69168;42.708;23.286;2024-01-15T10:35:54;4.42;59.26
79698;SHT31;69168;42.708;23.286;2024-01-15T10:38:24;4.33;59.82
79698;SHT31;69168;42.708;23.286;2024-01-15T10:40:54;4.37;58.43
79698;SHT31;69168;42.708;23.286;2024-01-15T10:43:20;4.74;58.05
79698;SHT31;69168;42.708;23.286;2024-01-15T10:45:50;4.88;57.57
79698;SHT31;69168;42.708;23.286;2024-01-15T10:48:17;4.96;57.71
79698;SHT31;69168;42.708;23.286;2024-01-15T10:50:44;4.93;57.07
79698;SHT31;69168;42.708;23.286;2024-01-15T10:53:12;4.87;56.94
79698;SHT31;69168;42.708;23.286;2024-01-15T10:55:38;4.88;57.02
79698;SHT31;69168;42.708;23.286;2024-01-15T10:58:07;4.92;56.62
79698;SHT31;69168;42.708;23.286;2024-01-15T11:00:33;4.88;56.70
79698;SHT31;69168;42.708;23.286;2024-01-15T11:03:01;4.88;56.58
79698;SHT31;69168;42.708;23.286;2024-01-15T11:05:27;5.08;56.73
79698;SHT31;69168;42.708;23.286;2024-01-15T11:07:55;5.23;56.01
79698;SHT31;69168;42.708;23.286;2024-01-15T11:13:13;5.39;57.32
79698;SHT31;69168;42.708;23.286;2024-01-15T11:16:05;5.39;57.07
79698;SHT31;69168;42.708;23.286;2024-01-15T11:18:34;5.42;57.19
79698;SHT31;69168;42.708;23.286;2024-01-15T11:23:46;5.35;54.34
79698;SHT31;69168;42.708;23.286;2024-01-15T11:29:04;5.28;56.35
79698;SHT31;69168;42.708;23.286;2024-01-15T11:34:16;5.32;55.09
79698;SHT31;69168;42.708;23.286;2024-01-15T11:42:00;5.36;55.19
79698;SHT31;69168;42.708;23.286;2024-01-15T11:44:27;5.32;53.86
79698;SHT31;69168;42.708;23.286;2024-01-15T11:47:03;5.35;54.00
79698;SHT31;69168;42.708;23.286;2024-01-15T11:52:12;5.33;54.47
79698;SHT31;69168;42.708;23.286;2024-01-15T11:54:44;5.42;54.79
79698;SHT31;69168;42.708;23.286;2024-01-15T11:57:19;5.35;54.46
79698;SHT31;69168;42.708;23.286;2024-01-15T11:59:47;5.28;54.34
79698;SHT31;69168;42.708;23.286;2024-01-15T12:02:15;5.22;54.67
79698;SHT31;69168;42.708;23.286;2024-01-15T12:04:41;5.19;54.91
79698;SHT31;69168;42.708;23.286;2024-01-15T12:07:06;5.26;54.26
79698;SHT31;69168;42.708;23.286;2024-01-15T12:09:32;5.16;53.75
79698;SHT31;69168;42.708;23.286;2024-01-15T12:12:03;5.01;55.23
79698;SHT31;69168;42.708;23.286;2024-01-15T12:14:33;5.04;55.26
79698;SHT31;69168;42.708;23.286;2024-01-15T12:17:00;5.05;56.33
79698;SHT31;69168;42.708;23.286;2024-01-15T12:19:25;4.96;56.85
79698;SHT31;69168;42.708;23.286;2024-01-15T12:21:51;4.98;56.21
79698;SHT31;69168;42.708;23.286;2024-01-15T12:24:17;5.02;55.54
79698;SHT31;69168;42.708;23.286;2024-01-15T12:26:43;4.91;55.37
79698;SHT31;69168;42.708;23.286;2024-01-15T12:29:10;4.92;55.16
79698;SHT31;69168;42.708;23.286;2024-01-15T12:31:36;4.95;55.16
79698;SHT31;69168;42.708;23.286;2024-01-15T12:34:02;4.91;55.36
79698;SHT31;69168;42.708;23.286;2024-01-15T12:36:30;4.95;55.05
79698;SHT31;69168;42.708;23.286;2024-01-15T12:38:59;4.87;55.02
79698;SHT31;69168;42.708;23.286;2024-01-15T12:41:25;4.82;55.62
79698;SHT31;69168;42.708;23.286;2024-01-15T12:43:50;4.93;55.87
79698;SHT31;69168;42.708;23.286;2024-01-15T12:46:16;4.87;55.63
79698;SHT31;69168;42.708;23.286;2024-01-15T12:48:42;4.77;55.77
79698;SHT31;69168;42.708;23.286;2024-01-15T12:51:08;4.71;56.43
79698;SHT31;69168;42.708;23.286;2024-01-15T12:53:33;4.80;57.67
79698;SHT31;69168;42.708;23.286;2024-01-15T12:55:59;4.89;57.23
79698;SHT31;69168;42.708;23.286;2024-01-15T12:58:24;4.84;57.02
79698;SHT31;69168;42.708;23.286;2024-01-15T13:00:50;4.85;56.57
79698;SHT31;69168;42.708;23.286;2024-01-15T13:03:15;4.85;55.92
79698;SHT31;69168;42.708;23.286;2024-01-15T13:05:41;4.84;56.03
79698;SHT31;69168;42.708;23.286;2024-01-15T13:08:06;4.81;56.35
79698;SHT31;69168;42.708;23.286;2024-01-15T13:10:32;4.81;56.08
79698;SHT31;69168;42.708;23.286;2024-01-15T13:12:58;4.75;56.02
79698;SHT31;69168;42.708;23.286;2024-01-15T13:15:23;4.70;57.05
79698;SHT31;69168;42.708;23.286;2024-01-15T13:17:49;4.63;57.17
79698;SHT31;69168;42.708;23.286;2024-01-15T13:20:14;4.61;57.24
79698;SHT31;69168;42.708;23.286;2024-01-15T13:22:40;4.63;57.78
79698;SHT31;69168;42.708;23.286;2024-01-15T13:25:09;4.61;57.73
79698;SHT31;69168;42.708;23.286;2024-01-15T13:27:34;4.56;58.15
79698;SHT31;69168;42.708;23.286;2024-01-15T13:30:06;4.52;57.88
79698;SHT31;69168;42.708;23.286;2024-01-15T13:32:33;4.50;58.02
79698;SHT31;69168;42.708;23.286;2024-01-15T13:34:59;4.54;57.73
79698;SHT31;69168;42.708;23.286;2024-01-15T13:37:25;4.58;57.69
79698;SHT31;69168;42.708;23.286;2024-01-15T13:39:51;4.78;56.97
79698;SHT31;69168;42.708;23.286;2024-01-15T13:42:17;4.75;57.35
79698;SHT31;69168;42.708;23.286;2024-01-15T13:44:43;4.68;57.44
79698;SHT31;69168;42.708;23.286;2024-01-15T13:47:09;4.78;57.35
79698;SHT31;69168;42.708;23.286;2024-01-15T13:49:35;4.74;57.22
79698;SHT31;69168;42.708;23.286;2024-01-15T13:52:02;4.65;57.87
79698;SHT31;69168;42.708;23.286;2024-01-15T13:54:29;4.68;57.90
79698;SHT31;69168;42.708;23.286;2024-01-15T13:56:55;4.74;57.91
79698;SHT31;69168;42.708;23.286;2024-01-15T13:59:21;4.71;57.86
79698;SHT31;69168;42.708;23.286;2024-01-15T14:01:46;4.77;57.98
79698;SHT31;69168;42.708;23.286;2024-01-15T14:04:12;4.84;56.92
79698;SHT31;69168;42.708;23.286;2024-01-15T14:06:38;4.73;57.40
79698;SHT31;69168;42.708;23.286;2024-01-15T14:09:04;4.65;57.73
79698;SHT31;69168;42.708;23.286;2024-01-15T14:11:30;4.61;58.08
79698;SHT31;69168;42.708;23.286;2024-01-15T14:13:56;4.64;58.14
79698;SHT31;69168;42.708;23.286;2024-01-15T14:16:22;4.92;57.42
79698;SHT31;69168;42.708;23.286;2024-01-15T14:18:47;4.89;57.33
79698;SHT31;69168;42.708;23.286;2024-01-15T14:21:13;4.80;57.72
79698;SHT31;69168;42.708;23.286;2024-01-15T14:23:39;4.67;58.63
79698;SHT31;69168;42.708;23.286;2024-01-15T14:26:05;4.54;59.08
79698;SHT31;69168;42.708;23.286;2024-01-15T14:28:30;4.53;59.28
79698;SHT31;69168;42.708;23.286;2024-01-15T14:30:56;4.47;59.24
79698;SHT31;69168;42.708;23.286;2024-01-15T14:33:23;4.49;59.26
79698;SHT31;69168;42.708;23.286;2024-01-15T14:35:49;4.47;59.28
79698;SHT31;69168;42.708;23.286;2024-01-15T14:38:14;4.53;59.41
79698;SHT31;69168;42.708;23.286;2024-01-15T14:40:40;4.44;59.66
79698;SHT31;69168;42.708;23.286;2024-01-15T14:43:06;4.44;60.27
79698;SHT31;69168;42.708;23.286;2024-01-15T14:45:31;4.40;60.38
79698;SHT31;69168;42.708;23.286;2024-01-15T14:47:57;4.35;60.24
79698;SHT31;69168;42.708;23.286;2024-01-15T14:50:23;4.37;60.00
79698;SHT31;69168;42.708;23.286;2024-01-15T14:52:49;4.37;59.44
79698;SHT31;69168;42.708;23.286;2024-01-15T14:55:15;4.33;59.63
79698;SHT31;69168;42.708;23.286;2024-01-15T14:57:40;4.29;59.91
79698;SHT31;69168;42.708;23.286;2024-01-15T15:00:06;4.29;59.98
79698;SHT31;69168;42.708;23.286;2024-01-15T15:02:33;4.30;60.05
79698;SHT31;69168;42.708;23.286;2024-01-15T15:05:00;4.29;60.14
79698;SHT31;69168;42.708;23.286;2024-01-15T15:07:26;4.20;60.74
79698;SHT31;69168;42.708;23.286;2024-01-15T15:09:51;4.35;60.15
79698;SHT31;69168;42.708;23.286;2024-01-15T15:12:17;4.26;60.25
79698;SHT31;69168;42.708;23.286;2024-01-15T15:14:43;4.18;60.46
79698;SHT31;69168;42.708;23.286;2024-01-15T15:17:08;4.12;60.80
79698;SHT31;69168;42.708;23.286;2024-01-15T15:19:37;4.06;61.13
79698;SHT31;69168;42.708;23.286;2024-01-15T15:22:05;4.03;61.19
79698;SHT31;69168;42.708;23.286;2024-01-15T15:24:31;3.98;61.19
79698;SHT31;69168;42.708;23.286;2024-01-15T15:26:56;3.95;61.48
79698;SHT31;69168;42.708;23.286;2024-01-15T15:29:22;3.99;61.67
79698;SHT31;69168;42.708;23.286;2024-01-15T15:31:50;4.35;60.17
79698;SHT31;69168;42.708;23.286;2024-01-15T15:34:15;4.25;60.55
79698;SHT31;69168;42.708;23.286;2024-01-15T15:36:41;4.06;61.27